sensor_id;sensor_type;location;lat;lon;timestamp;P1;durP1;ratioP1;P2;durP2;ratioP2
76745;SDS011;65671;49.976;20.038;2023-06-26T00:01:57;7.00;;;4.80;;
76745;SDS011;65671;49.976;20.038;2023-06-26T00:04:22;9.65;;;4.80;;
76745;SDS011;65671;49.976;20.038;2023-06-26T00:06:48;7.35;;;5.18;;
76745;SDS011;65671;49.976;20.038;2023-06-26T00:09:13;10.25;;;5.53;;
76745;SDS011;65671;49.976;20.038;2023-06-26T00:11:39;7.97;;;5.35;;
76745;SDS011;65671;49.976;20.038;2023-06-26T00:14:04;8.07;;;5.40;;
76745;SDS011;65671;49.976;20.038;2023-06-26T00:16:30;6.68;;;4.95;;
76745;SDS011;65671;49.976;20.038;2023-06-26T00:18:56;6.38;;;4.70;;
76745;SDS011;65671;49.976;20.038;2023-06-26T00:21:21;6.70;;;4.70;;
76745;SDS011;65671;49.976;20.038;2023-06-26T00:23:47;10.50;;;5.53;;
76745;SDS011;65671;49.976;20.038;2023-06-26T00:26:12;9.52;;;5.43;;
76745;SDS011;65671;49.976;20.038;2023-06-26T00:28:38;9.35;;;6.00;;
76745;SDS011;65671;49.976;20.038;2023-06-26T00:31:04;8.80;;;5.47;;
76745;SDS011;65671;49.976;20.038;2023-06-26T00:33:29;7.88;;;5.30;;
76745;SDS011;65671;49.976;20.038;2023-06-26T00:35:55;8.57;;;4.97;;
76745;SDS011;65671;49.976;20.038;2023-06-26T00:38:21;8.23;;;5.40;;
76745;SDS011;65671;49.976;20.038;2023-06-26T00:40:46;10.82;;;5.72;;
76745;SDS011;65671;49.976;20.038;2023-06-26T00:43:11;8.50;;;5.18;;
76745;SDS011;65671;49.976;20.038;2023-06-26T00:45:37;8.50;;;5.50;;
76745;SDS011;65671;49.976;20.038;2023-06-26T00:48:03;7.95;;;5.70;;
76745;SDS011;65671;49.976;20.038;2023-06-26T00:50:29;8.65;;;5.57;;
76745;SDS011;65671;49.976;20.038;2023-06-26T00:52:54;9.15;;;6.10;;
76745;SDS011;65671;49.976;20.038;2023-06-26T00:55:25;12.10;;;5.63;;
76745;SDS011;65671;49.976;20.038;2023-06-26T00:57:52;8.18;;;4.68;;
76745;SDS011;65671;49.976;20.038;2023-06-26T01:00:18;9.68;;;5.20;;
76745;SDS011;65671;49.976;20.038;2023-06-26T01:02:43;8.43;;;5.30;;
76745;SDS011;65671;49.976;20.038;2023-06-26T01:05:08;8.07;;;5.70;;
76745;SDS011;65671;49.976;20.038;2023-06-26T01:07:37;8.32;;;5.43;;
76745;SDS011;65671;49.976;20.038;2023-06-26T01:10:04;10.90;;;5.38;;
76745;SDS011;65671;49.976;20.038;2023-06-26T01:12:31;11.25;;;6.00;;
76745;SDS011;65671;49.976;20.038;2023-06-26T01:14:58;8.93;;;5.22;;
76745;SDS011;65671;49.976;20.038;2023-06-26T01:17:25;12.30;;;5.63;;
76745;SDS011;65671;49.976;20.038;2023-06-26T01:19:56;8.55;;;5.28;;
76745;SDS011;65671;49.976;20.038;2023-06-26T01:28:19;9.40;;;5.60;;
76745;SDS011;65671;49.976;20.038;2023-06-26T01:30:45;15.23;;;7.57;;
76745;SDS011;65671;49.976;20.038;2023-06-26T01:33:12;9.65;;;5.85;;
76745;SDS011;65671;49.976;20.038;2023-06-26T01:35:39;8.90;;;5.70;;
76745;SDS011;65671;49.976;20.038;2023-06-26T01:38:38;9.00;;;5.82;;
76745;SDS011;65671;49.976;20.038;2023-06-26T01:40:57;9.52;;;5.38;;
76745;SDS011;65671;49.976;20.038;2023-06-26T01:49:11;9.10;;;5.68;;
76745;SDS011;65671;49.976;20.038;2023-06-26T01:54:39;8.52;;;5.95;;
76745;SDS011;65671;49.976;20.038;2023-06-26T01:57:20;9.05;;;5.30;;
76745;SDS011;65671;49.976;20.038;2023-06-26T01:59:48;8.02;;;5.50;;
76745;SDS011;65671;49.976;20.038;2023-06-26T02:02:15;8.02;;;5.13;;
76745;SDS011;65671;49.976;20.038;2023-06-26T02:04:41;9.13;;;5.70;;
76745;SDS011;65671;49.976;20.038;2023-06-26T02:07:06;10.85;;;5.78;;
76745;SDS011;65671;49.976;20.038;2023-06-26T02:09:32;9.75;;;5.93;;
76745;SDS011;65671;49.976;20.038;2023-06-26T02:11:57;8.93;;;5.57;;
76745;SDS011;65671;49.976;20.038;2023-06-26T02:14:23;10.52;;;5.55;;
76745;SDS011;65671;49.976;20.038;2023-06-26T02:16:48;9.80;;;5.68;;
76745;SDS011;65671;49.976;20.038;2023-06-26T02:19:15;8.38;;;5.22;;
76745;SDS011;65671;49.976;20.038;2023-06-26T02:21:46;8.15;;;5.75;;
76745;SDS011;65671;49.976;20.038;2023-06-26T02:24:14;10.00;;;5.80;;
76745;SDS011;65671;49.976;20.038;2023-06-26T02:26:39;9.27;;;5.88;;
76745;SDS011;65671;49.976;20.038;2023-06-26T02:29:05;8.95;;;6.00;;
76745;SDS011;65671;49.976;20.038;2023-06-26T02:31:30;10.05;;;5.55;;
76745;SDS011;65671;49.976;20.038;2023-06-26T02:33:56;9.48;;;5.78;;
76745;SDS011;65671;49.976;20.038;2023-06-26T02:36:22;10.07;;;6.28;;
76745;SDS011;65671;49.976;20.038;2023-06-26T02:38:48;10.60;;;6.20;;
76745;SDS011;65671;49.976;20.038;2023-06-26T02:41:13;10.25;;;5.95;;
76745;SDS011;65671;49.976;20.038;2023-06-26T02:43:39;9.73;;;5.70;;
76745;SDS011;65671;49.976;20.038;2023-06-26T02:46:04;13.98;;;6.10;;
76745;SDS011;65671;49.976;20.038;2023-06-26T02:48:29;8.85;;;5.80;;
76745;SDS011;65671;49.976;20.038;2023-06-26T02:50:55;9.27;;;5.47;;
76745;SDS011;65671;49.976;20.038;2023-06-26T02:53:20;8.85;;;5.82;;
76745;SDS011;65671;49.976;20.038;2023-06-26T02:55:46;8.95;;;5.50;;
76745;SDS011;65671;49.976;20.038;2023-06-26T02:58:12;8.77;;;5.93;;
76745;SDS011;65671;49.976;20.038;2023-06-26T03:00:38;10.32;;;6.10;;
76745;SDS011;65671;49.976;20.038;2023-06-26T03:03:06;11.32;;;6.30;;
76745;SDS011;65671;49.976;20.038;2023-06-26T03:05:32;9.68;;;5.55;;
76745;SDS011;65671;49.976;20.038;2023-06-26T03:07:58;10.25;;;5.60;;
76745;SDS011;65671;49.976;20.038;2023-06-26T03:10:23;10.68;;;5.60;;
76745;SDS011;65671;49.976;20.038;2023-06-26T03:12:49;11.38;;;5.72;;
76745;SDS011;65671;49.976;20.038;2023-06-26T03:15:15;8.43;;;5.85;;
76745;SDS011;65671;49.976;20.038;2023-06-26T03:17:40;9.38;;;6.18;;
76745;SDS011;65671;49.976;20.038;2023-06-26T03:20:06;8.98;;;5.45;;
76745;SDS011;65671;49.976;20.038;2023-06-26T03:22:32;7.88;;;5.53;;
76745;SDS011;65671;49.976;20.038;2023-06-26T03:24:58;8.50;;;5.68;;
76745;SDS011;65671;49.976;20.038;2023-06-26T03:27:24;10.30;;;5.65;;
76745;SDS011;65671;49.976;20.038;2023-06-26T03:29:51;9.98;;;5.65;;
76745;SDS011;65671;49.976;20.038;2023-06-26T03:32:17;8.85;;;5.28;;
76745;SDS011;65671;49.976;20.038;2023-06-26T03:34:43;10.98;;;6.25;;
76745;SDS011;65671;49.976;20.038;2023-06-26T03:37:08;10.80;;;5.68;;
76745;SDS011;65671;49.976;20.038;2023-06-26T03:39:34;9.82;;;5.20;;
76745;SDS011;65671;49.976;20.038;2023-06-26T03:41:59;11.82;;;5.55;;
76745;SDS011;65671;49.976;20.038;2023-06-26T03:44:26;9.48;;;5.47;;
76745;SDS011;65671;49.976;20.038;2023-06-26T03:46:52;8.02;;;5.40;;
76745;SDS011;65671;49.976;20.038;2023-06-26T03:49:18;7.57;;;5.40;;
76745;SDS011;65671;49.976;20.038;2023-06-26T03:51:44;11.05;;;5.35;;
76745;SDS011;65671;49.976;20.038;2023-06-26T03:54:09;11.50;;;5.38;;
76745;SDS011;65671;49.976;20.038;2023-06-26T03:56:35;10.65;;;5.40;;
76745;SDS011;65671;49.976;20.038;2023-06-26T03:59:01;7.30;;;5.45;;
76745;SDS011;65671;49.976;20.038;2023-06-26T04:01:26;8.60;;;6.05;;
76745;SDS011;65671;49.976;20.038;2023-06-26T04:03:52;9.18;;;5.55;;
76745;SDS011;65671;49.976;20.038;2023-06-26T04:06:18;8.88;;;5.85;;
76745;SDS011;65671;49.976;20.038;2023-06-26T04:08:43;10.75;;;6.00;;
76745;SDS011;65671;49.976;20.038;2023-06-26T04:11:09;9.40;;;5.88;;
76745;SDS011;65671;49.976;20.038;2023-06-26T04:13:34;7.47;;;5.63;;
76745;SDS011;65671;49.976;20.038;2023-06-26T04:16:00;8.25;;;5.40;;
76745;SDS011;65671;49.976;20.038;2023-06-26T04:18:26;9.63;;;5.82;;
76745;SDS011;65671;49.976;20.038;2023-06-26T04:21:11;9.27;;;5.85;;
76745;SDS011;65671;49.976;20.038;2023-06-26T04:23:37;10.32;;;5.70;;
76745;SDS011;65671;49.976;20.038;2023-06-26T04:26:07;9.40;;;5.55;;
76745;SDS011;65671;49.976;20.038;2023-06-26T04:28:33;8.98;;;5.93;;
76745;SDS011;65671;49.976;20.038;2023-06-26T04:31:00;10.07;;;6.00;;
76745;SDS011;65671;49.976;20.038;2023-06-26T04:33:28;8.70;;;6.00;;
76745;SDS011;65671;49.976;20.038;2023-06-26T04:35:54;10.15;;;5.30;;
76745;SDS011;65671;49.976;20.038;2023-06-26T04:38:20;9.00;;;5.22;;
76745;SDS011;65671;49.976;20.038;2023-06-26T04:40:47;9.07;;;5.68;;
76745;SDS011;65671;49.976;20.038;2023-06-26T04:43:13;10.45;;;5.45;;
76745;SDS011;65671;49.976;20.038;2023-06-26T04:45:39;8.80;;;5.70;;
76745;SDS011;65671;49.976;20.038;2023-06-26T04:48:05;11.88;;;6.22;;
76745;SDS011;65671;49.976;20.038;2023-06-26T04:50:34;10.60;;;5.93;;
76745;SDS011;65671;49.976;20.038;2023-06-26T04:53:00;12.40;;;5.70;;
76745;SDS011;65671;49.976;20.038;2023-06-26T04:55:26;9.45;;;5.68;;
76745;SDS011;65671;49.976;20.038;2023-06-26T04:57:51;10.98;;;6.43;;
76745;SDS011;65671;49.976;20.038;2023-06-26T05:00:17;10.32;;;5.88;;
76745;SDS011;65671;49.976;20.038;2023-06-26T05:02:43;13.65;;;6.45;;
76745;SDS011;65671;49.976;20.038;2023-06-26T05:05:08;8.95;;;5.97;;
76745;SDS011;65671;49.976;20.038;2023-06-26T05:07:35;11.50;;;6.63;;
76745;SDS011;65671;49.976;20.038;2023-06-26T05:10:01;8.43;;;6.07;;
76745;SDS011;65671;49.976;20.038;2023-06-26T05:12:27;10.10;;;5.82;;
76745;SDS011;65671;49.976;20.038;2023-06-26T05:14:52;12.52;;;6.47;;
76745;SDS011;65671;49.976;20.038;2023-06-26T05:17:18;8.98;;;5.70;;
76745;SDS011;65671;49.976;20.038;2023-06-26T05:19:43;10.10;;;6.57;;
76745;SDS011;65671;49.976;20.038;2023-06-26T05:22:09;10.13;;;5.90;;
76745;SDS011;65671;49.976;20.038;2023-06-26T05:24:35;11.07;;;6.40;;
76745;SDS011;65671;49.976;20.038;2023-06-26T05:27:02;10.27;;;6.22;;
76745;SDS011;65671;49.976;20.038;2023-06-26T05:29:29;9.00;;;6.32;;
76745;SDS011;65671;49.976;20.038;2023-06-26T05:31:58;11.48;;;6.50;;
76745;SDS011;65671;49.976;20.038;2023-06-26T05:34:24;9.15;;;6.20;;
76745;SDS011;65671;49.976;20.038;2023-06-26T05:36:55;13.63;;;6.32;;
76745;SDS011;65671;49.976;20.038;2023-06-26T05:39:23;9.45;;;5.97;;
76745;SDS011;65671;49.976;20.038;2023-06-26T05:41:49;11.68;;;6.38;;
76745;SDS011;65671;49.976;20.038;2023-06-26T05:44:15;9.65;;;6.20;;
76745;SDS011;65671;49.976;20.038;2023-06-26T05:46:40;11.00;;;5.82;;
76745;SDS011;65671;49.976;20.038;2023-06-26T05:49:06;9.20;;;6.32;;
76745;SDS011;65671;49.976;20.038;2023-06-26T05:51:32;8.75;;;6.00;;
76745;SDS011;65671;49.976;20.038;2023-06-26T05:53:57;10.50;;;5.75;;
76745;SDS011;65671;49.976;20.038;2023-06-26T05:56:23;8.52;;;5.55;;
76745;SDS011;65671;49.976;20.038;2023-06-26T05:58:49;9.02;;;5.80;;
76745;SDS011;65671;49.976;20.038;2023-06-26T06:01:16;9.48;;;5.72;;
76745;SDS011;65671;49.976;20.038;2023-06-26T06:03:41;11.05;;;6.03;;
76745;SDS011;65671;49.976;20.038;2023-06-26T06:06:07;10.82;;;5.68;;
76745;SDS011;65671;49.976;20.038;2023-06-26T06:08:32;12.85;;;7.30;;
76745;SDS011;65671;49.976;20.038;2023-06-26T06:10:59;11.85;;;5.85;;
76745;SDS011;65671;49.976;20.038;2023-06-26T06:13:25;9.23;;;5.93;;
76745;SDS011;65671;49.976;20.038;2023-06-26T06:15:50;9.25;;;5.70;;
76745;SDS011;65671;49.976;20.038;2023-06-26T06:18:16;11.20;;;6.55;;
76745;SDS011;65671;49.976;20.038;2023-06-26T06:20:42;10.40;;;6.72;;
76745;SDS011;65671;49.976;20.038;2023-06-26T06:23:07;10.05;;;5.45;;
76745;SDS011;65671;49.976;20.038;2023-06-26T06:25:33;13.40;;;6.45;;
76745;SDS011;65671;49.976;20.038;2023-06-26T06:27:58;9.55;;;5.68;;
76745;SDS011;65671;49.976;20.038;2023-06-26T06:30:23;11.57;;;6.63;;
76745;SDS011;65671;49.976;20.038;2023-06-26T06:32:49;10.07;;;6.47;;
76745;SDS011;65671;49.976;20.038;2023-06-26T06:35:18;10.02;;;5.93;;
76745;SDS011;65671;49.976;20.038;2023-06-26T06:37:44;9.95;;;6.10;;
76745;SDS011;65671;49.976;20.038;2023-06-26T06:40:09;10.70;;;5.75;;
76745;SDS011;65671;49.976;20.038;2023-06-26T06:42:36;11.88;;;5.38;;
76745;SDS011;65671;49.976;20.038;2023-06-26T06:45:02;10.82;;;6.30;;
76745;SDS011;65671;49.976;20.038;2023-06-26T06:47:28;11.10;;;6.15;;
76745;SDS011;65671;49.976;20.038;2023-06-26T06:49:53;12.30;;;6.70;;
76745;SDS011;65671;49.976;20.038;2023-06-26T06:52:19;7.97;;;5.40;;
76745;SDS011;65671;49.976;20.038;2023-06-26T06:54:55;11.65;;;6.03;;
76745;SDS011;65671;49.976;20.038;2023-06-26T06:57:24;14.02;;;5.63;;
76745;SDS011;65671;49.976;20.038;2023-06-26T06:59:50;9.95;;;5.57;;
76745;SDS011;65671;49.976;20.038;2023-06-26T07:02:19;10.60;;;5.57;;
76745;SDS011;65671;49.976;20.038;2023-06-26T07:04:44;7.57;;;5.30;;
76745;SDS011;65671;49.976;20.038;2023-06-26T07:07:10;9.45;;;5.25;;
76745;SDS011;65671;49.976;20.038;2023-06-26T07:09:38;8.23;;;5.38;;
76745;SDS011;65671;49.976;20.038;2023-06-26T07:12:04;10.88;;;5.70;;
76745;SDS011;65671;49.976;20.038;2023-06-26T07:14:30;9.05;;;5.88;;
76745;SDS011;65671;49.976;20.038;2023-06-26T07:16:55;9.02;;;4.93;;
76745;SDS011;65671;49.976;20.038;2023-06-26T07:19:21;8.20;;;5.82;;
76745;SDS011;65671;49.976;20.038;2023-06-26T07:21:46;13.25;;;6.07;;
76745;SDS011;65671;49.976;20.038;2023-06-26T07:24:12;9.68;;;5.85;;
76745;SDS011;65671;49.976;20.038;2023-06-26T07:26:37;9.45;;;5.55;;
76745;SDS011;65671;49.976;20.038;2023-06-26T07:29:03;9.18;;;6.00;;
76745;SDS011;65671;49.976;20.038;2023-06-26T07:31:29;9.07;;;5.50;;
76745;SDS011;65671;49.976;20.038;2023-06-26T07:33:55;11.80;;;5.65;;
76745;SDS011;65671;49.976;20.038;2023-06-26T07:36:20;7.07;;;4.90;;
76745;SDS011;65671;49.976;20.038;2023-06-26T07:38:46;8.65;;;4.95;;
76745;SDS011;65671;49.976;20.038;2023-06-26T07:41:11;9.30;;;5.32;;
76745;SDS011;65671;49.976;20.038;2023-06-26T07:43:37;10.90;;;5.53;;
76745;SDS011;65671;49.976;20.038;2023-06-26T07:46:02;9.82;;;5.57;;
76745;SDS011;65671;49.976;20.038;2023-06-26T07:48:28;9.70;;;5.28;;
76745;SDS011;65671;49.976;20.038;2023-06-26T07:50:53;8.23;;;4.57;;
76745;SDS011;65671;49.976;20.038;2023-06-26T07:53:19;8.43;;;5.50;;
76745;SDS011;65671;49.976;20.038;2023-06-26T07:55:45;7.30;;;5.25;;
76745;SDS011;65671;49.976;20.038;2023-06-26T07:58:10;9.15;;;5.15;;
76745;SDS011;65671;49.976;20.038;2023-06-26T08:00:36;7.20;;;4.80;;
76745;SDS011;65671;49.976;20.038;2023-06-26T08:03:02;9.25;;;4.55;;
76745;SDS011;65671;49.976;20.038;2023-06-26T08:05:27;8.60;;;4.70;;
76745;SDS011;65671;49.976;20.038;2023-06-26T08:07:53;6.78;;;4.82;;
76745;SDS011;65671;49.976;20.038;2023-06-26T08:10:18;7.43;;;4.88;;
76745;SDS011;65671;49.976;20.038;2023-06-26T08:12:44;8.05;;;4.97;;
76745;SDS011;65671;49.976;20.038;2023-06-26T08:15:10;7.72;;;4.70;;
76745;SDS011;65671;49.976;20.038;2023-06-26T08:17:37;8.85;;;4.97;;
76745;SDS011;65671;49.976;20.038;2023-06-26T08:20:03;5.97;;;4.32;;
76745;SDS011;65671;49.976;20.038;2023-06-26T08:22:29;8.88;;;5.10;;
76745;SDS011;65671;49.976;20.038;2023-06-26T08:24:54;9.32;;;4.80;;
76745;SDS011;65671;49.976;20.038;2023-06-26T08:27:20;7.95;;;4.38;;
76745;SDS011;65671;49.976;20.038;2023-06-26T08:29:45;5.72;;;4.03;;
76745;SDS011;65671;49.976;20.038;2023-06-26T08:32:11;7.30;;;4.18;;
76745;SDS011;65671;49.976;20.038;2023-06-26T08:34:36;9.68;;;4.93;;
76745;SDS011;65671;49.976;20.038;2023-06-26T08:37:02;8.95;;;4.70;;
76745;SDS011;65671;49.976;20.038;2023-06-26T08:39:28;7.13;;;4.72;;
76745;SDS011;65671;49.976;20.038;2023-06-26T08:41:53;7.10;;;3.67;;
76745;SDS011;65671;49.976;20.038;2023-06-26T08:44:19;6.07;;;4.13;;
76745;SDS011;65671;49.976;20.038;2023-06-26T08:46:50;5.18;;;3.92;;
76745;SDS011;65671;49.976;20.038;2023-06-26T08:52:13;7.45;;;4.78;;
76745;SDS011;65671;49.976;20.038;2023-06-26T08:54:45;6.45;;;4.13;;
76745;SDS011;65671;49.976;20.038;2023-06-26T08:57:17;7.10;;;4.05;;
76745;SDS011;65671;49.976;20.038;2023-06-26T08:59:44;5.93;;;4.22;;
76745;SDS011;65671;49.976;20.038;2023-06-26T09:02:12;6.47;;;3.80;;
76745;SDS011;65671;49.976;20.038;2023-06-26T09:04:38;6.18;;;3.83;;
76745;SDS011;65671;49.976;20.038;2023-06-26T09:07:04;7.32;;;3.50;;
76745;SDS011;65671;49.976;20.038;2023-06-26T09:09:30;5.88;;;3.95;;
76745;SDS011;65671;49.976;20.038;2023-06-26T09:11:55;5.32;;;3.30;;
76745;SDS011;65671;49.976;20.038;2023-06-26T09:14:21;7.97;;;4.10;;
76745;SDS011;65671;49.976;20.038;2023-06-26T09:16:47;6.68;;;4.20;;
76745;SDS011;65671;49.976;20.038;2023-06-26T09:19:12;6.47;;;4.60;;
76745;SDS011;65671;49.976;20.038;2023-06-26T09:21:41;6.45;;;4.40;;
76745;SDS011;65671;49.976;20.038;2023-06-26T09:24:08;5.55;;;4.25;;
76745;SDS011;65671;49.976;20.038;2023-06-26T09:26:38;9.80;;;4.50;;
76745;SDS011;65671;49.976;20.038;2023-06-26T09:29:05;5.88;;;4.25;;
76745;SDS011;65671;49.976;20.038;2023-06-26T09:31:36;6.40;;;4.38;;
76745;SDS011;65671;49.976;20.038;2023-06-26T09:34:02;5.53;;;3.92;;
76745;SDS011;65671;49.976;20.038;2023-06-26T09:36:29;6.20;;;4.85;;
76745;SDS011;65671;49.976;20.038;2023-06-26T09:39:01;6.22;;;4.20;;
76745;SDS011;65671;49.976;20.038;2023-06-26T09:41:29;10.20;;;4.90;;
76745;SDS011;65671;49.976;20.038;2023-06-26T09:43:57;5.75;;;4.20;;
76745;SDS011;65671;49.976;20.038;2023-06-26T09:46:27;6.20;;;4.07;;
76745;SDS011;65671;49.976;20.038;2023-06-26T09:49:01;5.40;;;4.32;;
76745;SDS011;65671;49.976;20.038;2023-06-26T09:51:30;7.85;;;4.80;;
76745;SDS011;65671;49.976;20.038;2023-06-26T09:53:57;7.45;;;4.18;;
76745;SDS011;65671;49.976;20.038;2023-06-26T09:56:23;5.70;;;4.03;;
76745;SDS011;65671;49.976;20.038;2023-06-26T09:58:49;6.18;;;4.30;;
76745;SDS011;65671;49.976;20.038;2023-06-26T10:01:15;5.50;;;4.18;;
76745;SDS011;65671;49.976;20.038;2023-06-26T10:03:40;5.88;;;4.03;;
76745;SDS011;65671;49.976;20.038;2023-06-26T10:06:07;7.97;;;4.68;;
76745;SDS011;65671;49.976;20.038;2023-06-26T10:08:34;6.93;;;4.15;;
76745;SDS011;65671;49.976;20.038;2023-06-26T10:11:04;6.65;;;4.45;;
76745;SDS011;65671;49.976;20.038;2023-06-26T10:13:34;7.28;;;4.13;;
76745;SDS011;65671;49.976;20.038;2023-06-26T10:16:03;6.65;;;4.43;;
76745;SDS011;65671;49.976;20.038;2023-06-26T10:18:32;6.45;;;4.53;;
76745;SDS011;65671;49.976;20.038;2023-06-26T10:21:00;6.55;;;4.47;;
76745;SDS011;65671;49.976;20.038;2023-06-26T10:23:28;6.28;;;4.10;;
76745;SDS011;65671;49.976;20.038;2023-06-26T10:25:55;7.72;;;4.63;;
76745;SDS011;65671;49.976;20.038;2023-06-26T10:28:25;8.35;;;4.60;;
76745;SDS011;65671;49.976;20.038;2023-06-26T10:30:53;6.90;;;4.68;;
76745;SDS011;65671;49.976;20.038;2023-06-26T10:33:20;6.22;;;4.55;;
76745;SDS011;65671;49.976;20.038;2023-06-26T10:35:46;8.55;;;5.28;;
76745;SDS011;65671;49.976;20.038;2023-06-26T10:38:12;6.80;;;4.80;;
76745;SDS011;65671;49.976;20.038;2023-06-26T10:40:42;6.45;;;4.80;;
76745;SDS011;65671;49.976;20.038;2023-06-26T10:43:10;6.88;;;4.72;;
76745;SDS011;65671;49.976;20.038;2023-06-26T10:45:37;6.25;;;4.60;;
76745;SDS011;65671;49.976;20.038;2023-06-26T10:48:09;5.57;;;4.47;;
76745;SDS011;65671;49.976;20.038;2023-06-26T10:50:34;6.45;;;4.45;;
76745;SDS011;65671;49.976;20.038;2023-06-26T10:53:10;8.00;;;4.55;;
76745;SDS011;65671;49.976;20.038;2023-06-26T10:56:21;7.65;;;4.90;;
76745;SDS011;65671;49.976;20.038;2023-06-26T10:58:33;6.47;;;4.32;;
76745;SDS011;65671;49.976;20.038;2023-06-26T11:04:03;8.77;;;4.85;;
76745;SDS011;65671;49.976;20.038;2023-06-26T11:06:32;7.50;;;5.05;;
76745;SDS011;65671;49.976;20.038;2023-06-26T11:14:24;6.25;;;5.15;;
76745;SDS011;65671;49.976;20.038;2023-06-26T11:16:51;6.60;;;4.57;;
76745;SDS011;65671;49.976;20.038;2023-06-26T11:19:18;8.82;;;4.93;;
76745;SDS011;65671;49.976;20.038;2023-06-26T11:21:44;8.40;;;4.78;;
76745;SDS011;65671;49.976;20.038;2023-06-26T11:24:11;6.68;;;5.03;;
76745;SDS011;65671;49.976;20.038;2023-06-26T11:26:40;6.38;;;4.32;;
76745;SDS011;65671;49.976;20.038;2023-06-26T11:29:07;8.05;;;5.05;;
76745;SDS011;65671;49.976;20.038;2023-06-26T11:31:34;7.25;;;4.80;;
76745;SDS011;65671;49.976;20.038;2023-06-26T11:34:02;6.82;;;4.90;;
76745;SDS011;65671;49.976;20.038;2023-06-26T11:36:29;8.88;;;4.68;;
76745;SDS011;65671;49.976;20.038;2023-06-26T11:38:59;6.32;;;4.43;;
76745;SDS011;65671;49.976;20.038;2023-06-26T11:41:27;8.27;;;4.97;;
76745;SDS011;65671;49.976;20.038;2023-06-26T11:43:54;6.43;;;4.65;;
76745;SDS011;65671;49.976;20.038;2023-06-26T11:46:20;7.93;;;4.70;;
76745;SDS011;65671;49.976;20.038;2023-06-26T11:48:46;7.28;;;5.03;;
76745;SDS011;65671;49.976;20.038;2023-06-26T11:51:13;8.60;;;4.93;;
76745;SDS011;65671;49.976;20.038;2023-06-26T11:53:40;8.13;;;4.90;;
76745;SDS011;65671;49.976;20.038;2023-06-26T11:56:10;12.80;;;5.28;;
76745;SDS011;65671;49.976;20.038;2023-06-26T11:58:54;7.68;;;4.68;;
76745;SDS011;65671;49.976;20.038;2023-06-26T12:01:20;7.55;;;5.18;;
76745;SDS011;65671;49.976;20.038;2023-06-26T12:03:47;7.32;;;4.57;;
76745;SDS011;65671;49.976;20.038;2023-06-26T12:06:14;8.50;;;4.75;;
76745;SDS011;65671;49.976;20.038;2023-06-26T12:08:40;5.97;;;5.03;;
76745;SDS011;65671;49.976;20.038;2023-06-26T12:11:06;7.07;;;4.90;;
76745;SDS011;65671;49.976;20.038;2023-06-26T12:13:31;9.15;;;5.57;;
76745;SDS011;65671;49.976;20.038;2023-06-26T12:15:57;6.47;;;4.78;;
76745;SDS011;65671;49.976;20.038;2023-06-26T12:18:23;7.00;;;4.32;;
76745;SDS011;65671;49.976;20.038;2023-06-26T12:20:50;7.25;;;5.05;;
76745;SDS011;65671;49.976;20.038;2023-06-26T12:23:16;6.68;;;4.82;;
76745;SDS011;65671;49.976;20.038;2023-06-26T12:25:42;8.00;;;5.15;;
76745;SDS011;65671;49.976;20.038;2023-06-26T12:28:15;6.50;;;4.50;;
76745;SDS011;65671;49.976;20.038;2023-06-26T12:30:45;6.70;;;4.75;;
76745;SDS011;65671;49.976;20.038;2023-06-26T12:33:14;5.82;;;4.60;;
76745;SDS011;65671;49.976;20.038;2023-06-26T12:35:41;6.22;;;5.05;;
76745;SDS011;65671;49.976;20.038;2023-06-26T12:38:08;5.85;;;5.00;;
76745;SDS011;65671;49.976;20.038;2023-06-26T12:40:49;7.47;;;4.55;;
76745;SDS011;65671;49.976;20.038;2023-06-26T12:43:25;6.75;;;4.65;;
76745;SDS011;65671;49.976;20.038;2023-06-26T12:45:53;7.40;;;5.25;;
76745;SDS011;65671;49.976;20.038;2023-06-26T12:48:20;6.05;;;4.25;;
76745;SDS011;65671;49.976;20.038;2023-06-26T12:50:46;7.10;;;4.82;;
76745;SDS011;65671;49.976;20.038;2023-06-26T12:53:11;8.07;;;5.20;;
76745;SDS011;65671;49.976;20.038;2023-06-26T12:55:37;6.72;;;4.65;;
76745;SDS011;65671;49.976;20.038;2023-06-26T12:58:02;6.07;;;4.20;;
76745;SDS011;65671;49.976;20.038;2023-06-26T13:00:28;7.57;;;4.93;;
76745;SDS011;65671;49.976;20.038;2023-06-26T13:02:53;6.57;;;5.18;;
76745;SDS011;65671;49.976;20.038;2023-06-26T13:05:18;5.50;;;4.65;;
76745;SDS011;65671;49.976;20.038;2023-06-26T13:07:44;7.10;;;4.82;;
76745;SDS011;65671;49.976;20.038;2023-06-26T13:10:09;6.65;;;4.80;;
76745;SDS011;65671;49.976;20.038;2023-06-26T13:12:35;8.57;;;5.10;;
76745;SDS011;65671;49.976;20.038;2023-06-26T13:15:00;7.22;;;5.47;;
76745;SDS011;65671;49.976;20.038;2023-06-26T13:17:26;6.65;;;5.53;;
76745;SDS011;65671;49.976;20.038;2023-06-26T13:19:51;7.18;;;5.13;;
76745;SDS011;65671;49.976;20.038;2023-06-26T13:22:17;7.10;;;4.93;;
76745;SDS011;65671;49.976;20.038;2023-06-26T13:24:42;6.20;;;5.22;;
76745;SDS011;65671;49.976;20.038;2023-06-26T13:27:08;8.20;;;4.90;;
76745;SDS011;65671;49.976;20.038;2023-06-26T13:29:33;7.22;;;4.95;;
76745;SDS011;65671;49.976;20.038;2023-06-26T13:31:58;7.40;;;5.03;;
76745;SDS011;65671;49.976;20.038;2023-06-26T13:34:24;7.47;;;5.80;;
76745;SDS011;65671;49.976;20.038;2023-06-26T13:36:52;8.50;;;5.18;;
76745;SDS011;65671;49.976;20.038;2023-06-26T13:39:19;7.88;;;5.20;;
76745;SDS011;65671;49.976;20.038;2023-06-26T13:41:45;9.88;;;5.43;;
76745;SDS011;65671;49.976;20.038;2023-06-26T13:44:11;7.93;;;5.80;;
76745;SDS011;65671;49.976;20.038;2023-06-26T13:46:36;6.72;;;5.25;;
76745;SDS011;65671;49.976;20.038;2023-06-26T13:49:02;7.18;;;5.20;;
76745;SDS011;65671;49.976;20.038;2023-06-26T13:51:27;8.95;;;5.15;;
76745;SDS011;65671;49.976;20.038;2023-06-26T13:53:53;6.72;;;4.80;;
76745;SDS011;65671;49.976;20.038;2023-06-26T13:56:20;8.82;;;4.70;;
76745;SDS011;65671;49.976;20.038;2023-06-26T13:58:47;10.23;;;4.78;;
76745;SDS011;65671;49.976;20.038;2023-06-26T14:01:13;6.32;;;5.00;;
76745;SDS011;65671;49.976;20.038;2023-06-26T14:03:38;6.88;;;4.70;;
76745;SDS011;65671;49.976;20.038;2023-06-26T14:06:05;5.75;;;4.82;;
76745;SDS011;65671;49.976;20.038;2023-06-26T14:08:31;6.55;;;5.10;;
76745;SDS011;65671;49.976;20.038;2023-06-26T14:10:56;6.72;;;5.25;;
76745;SDS011;65671;49.976;20.038;2023-06-26T14:13:21;6.75;;;5.60;;
76745;SDS011;65671;49.976;20.038;2023-06-26T14:15:47;10.07;;;4.63;;
76745;SDS011;65671;49.976;20.038;2023-06-26T14:18:12;6.68;;;5.05;;
76745;SDS011;65671;49.976;20.038;2023-06-26T14:20:40;8.85;;;6.00;;
76745;SDS011;65671;49.976;20.038;2023-06-26T14:23:05;8.73;;;5.75;;
76745;SDS011;65671;49.976;20.038;2023-06-26T14:25:31;8.80;;;5.22;;
76745;SDS011;65671;49.976;20.038;2023-06-26T14:27:56;7.60;;;5.43;;
76745;SDS011;65671;49.976;20.038;2023-06-26T14:30:23;7.32;;;5.15;;
76745;SDS011;65671;49.976;20.038;2023-06-26T14:32:48;6.10;;;5.50;;
76745;SDS011;65671;49.976;20.038;2023-06-26T14:35:14;7.20;;;5.60;;
76745;SDS011;65671;49.976;20.038;2023-06-26T14:37:39;6.88;;;5.13;;
76745;SDS011;65671;49.976;20.038;2023-06-26T14:40:06;7.00;;;4.70;;
76745;SDS011;65671;49.976;20.038;2023-06-26T14:42:33;7.20;;;5.40;;
76745;SDS011;65671;49.976;20.038;2023-06-26T14:44:58;6.28;;;5.00;;
76745;SDS011;65671;49.976;20.038;2023-06-26T14:47:24;8.07;;;5.15;;
76745;SDS011;65671;49.976;20.038;2023-06-26T14:49:49;6.65;;;5.10;;
76745;SDS011;65671;49.976;20.038;2023-06-26T14:52:15;6.97;;;4.97;;
76745;SDS011;65671;49.976;20.038;2023-06-26T14:54:40;6.80;;;5.57;;